createdAt,value
2017-11-22T00:00:47.328Z,0.00
2017-11-22T00:01:47.355Z,0.00
2017-11-22T00:02:47.382Z,0.00
2017-11-22T00:03:47.410Z,0.00
2017-11-22T00:04:47.434Z,0.00
2017-11-22T00:05:47.461Z,0.00
2017-11-22T00:06:47.488Z,0.00
2017-11-22T00:07:47.515Z,0.00
2017-11-22T00:08:47.541Z,0.00
2017-11-22T00:09:47.568Z,0.00
2017-11-22T00:10:47.597Z,0.00
2017-11-22T00:11:47.622Z,0.00
2017-11-22T00:12:47.649Z,0.00
2017-11-22T00:13:47.676Z,0.00
2017-11-22T00:14:47.702Z,0.00
2017-11-22T00:15:47.729Z,0.00
2017-11-22T00:16:47.755Z,0.00
2017-11-22T00:17:47.782Z,0.00
2017-11-22T00:18:47.810Z,0.00
2017-11-22T00:19:47.835Z,0.00
2017-11-22T00:20:47.862Z,0.00
2017-11-22T00:21:47.889Z,0.00
2017-11-22T00:22:47.915Z,0.00
2017-11-22T00:23:47.942Z,0.00
2017-11-22T00:24:47.968Z,0.00
2017-11-22T00:25:47.995Z,0.00
2017-11-22T00:26:48.022Z,0.00
2017-11-22T00:27:48.049Z,0.00
2017-11-22T00:28:48.077Z,0.00
2017-11-22T00:29:48.102Z,0.00
2017-11-22T00:30:48.129Z,0.00
2017-11-22T00:31:48.155Z,0.00
2017-11-22T00:32:48.183Z,0.00
2017-11-22T00:33:48.210Z,0.00
2017-11-22T00:34:48.237Z,0.00
2017-11-22T00:35:48.263Z,0.00
2017-11-22T00:36:48.290Z,0.00
2017-11-22T00:37:48.316Z,0.00
2017-11-22T00:38:48.346Z,0.00
2017-11-22T00:39:48.369Z,0.00
2017-11-22T00:40:48.397Z,0.00
2017-11-22T00:41:48.423Z,0.00
2017-11-22T00:42:48.451Z,0.00
2017-11-22T00:43:48.477Z,0.00
2017-11-22T00:44:48.502Z,0.00
2017-11-22T00:45:48.532Z,0.00
2017-11-22T00:46:48.558Z,0.00
2017-11-22T00:47:48.584Z,0.00
2017-11-22T00:48:48.610Z,0.00
2017-11-22T00:49:48.638Z,0.00
2017-11-22T00:50:48.664Z,0.00
2017-11-22T00:51:48.690Z,0.00
2017-11-22T00:52:48.716Z,0.00
2017-11-22T00:53:48.744Z,0.00
2017-11-22T00:54:48.771Z,0.00
2017-11-22T00:55:48.797Z,0.00
2017-11-22T00:56:48.823Z,0.00
2017-11-22T00:57:48.850Z,0.00
2017-11-22T00:58:48.877Z,0.00
2017-11-22T00:59:48.903Z,0.00
2017-11-22T01:00:48.930Z,0.00
2017-11-22T01:01:48.956Z,0.00
2017-11-22T01:02:48.984Z,0.00
2017-11-22T01:03:49.010Z,0.00
2017-11-22T01:04:49.038Z,0.00
2017-11-22T01:05:49.064Z,0.00
2017-11-22T01:06:49.089Z,0.00
2017-11-22T01:07:49.117Z,0.00
2017-11-22T01:08:49.143Z,0.00
2017-11-22T01:09:49.170Z,0.00
2017-11-22T01:10:49.197Z,0.00
2017-11-22T01:11:49.228Z,0.00
2017-11-22T01:12:49.249Z,0.00
2017-11-22T01:13:49.277Z,0.00
2017-11-22T01:14:49.305Z,0.00
2017-11-22T01:15:49.330Z,0.00
2017-11-22T01:16:49.358Z,0.00
2017-11-22T01:17:49.383Z,0.00
2017-11-22T01:18:49.410Z,0.00
2017-11-22T01:19:49.439Z,0.00
2017-11-22T01:20:49.464Z,0.00
2017-11-22T01:21:49.490Z,0.00
2017-11-22T01:22:49.518Z,0.00
2017-11-22T01:23:49.543Z,0.00
2017-11-22T01:24:49.570Z,0.00
2017-11-22T01:25:49.598Z,0.00
2017-11-22T01:26:49.625Z,0.00
2017-11-22T01:27:49.654Z,0.00
2017-11-22T01:28:49.678Z,0.00
2017-11-22T01:29:49.705Z,0.00
2017-11-22T01:30:49.732Z,0.00
2017-11-22T01:31:49.757Z,0.00
2017-11-22T01:32:49.784Z,0.00
2017-11-22T01:33:49.812Z,0.00
2017-11-22T01:34:49.838Z,0.00
2017-11-22T01:35:49.867Z,0.00
2017-11-22T01:36:49.892Z,0.00
2017-11-22T01:37:49.920Z,0.00
2017-11-22T01:38:49.946Z,0.00
2017-11-22T01:39:49.973Z,0.00
2017-11-22T01:40:50.000Z,0.00
2017-11-22T01:41:50.026Z,0.00
2017-11-22T01:42:50.054Z,0.00
2017-11-22T01:43:50.079Z,0.00
2017-11-22T01:44:50.105Z,0.00
2017-11-22T01:45:50.135Z,0.00
2017-11-22T01:46:50.175Z,0.00
2017-11-22T01:47:50.237Z,0.00
2017-11-22T01:48:50.213Z,0.00
2017-11-22T01:49:50.240Z,0.00
2017-11-22T01:50:50.268Z,0.00
2017-11-22T01:51:50.292Z,0.00
2017-11-22T01:52:50.319Z,0.00
2017-11-22T01:53:50.348Z,0.00
2017-11-22T01:54:50.374Z,0.00
2017-11-22T01:55:50.399Z,0.00
2017-11-22T01:56:50.426Z,0.00
2017-11-22T01:57:50.453Z,0.00
2017-11-22T01:58:50.481Z,0.00
2017-11-22T01:59:50.508Z,0.00
2017-11-22T02:00:50.534Z,0.00
2017-11-22T02:01:50.562Z,0.00
2017-11-22T02:02:50.589Z,0.00
2017-11-22T02:03:50.614Z,0.00
2017-11-22T02:04:50.640Z,0.00
2017-11-22T02:05:50.677Z,0.00
2017-11-22T02:06:50.695Z,0.00
2017-11-22T02:07:50.722Z,0.00
2017-11-22T02:08:50.749Z,0.00
2017-11-22T02:09:50.776Z,0.00
2017-11-22T02:10:50.802Z,0.00
2017-11-22T02:11:50.830Z,0.00
2017-11-22T02:12:50.855Z,0.00
2017-11-22T02:13:50.883Z,0.00
2017-11-22T02:14:50.909Z,0.00
2017-11-22T02:15:50.937Z,0.00
2017-11-22T02:16:50.975Z,0.00
2017-11-22T02:17:50.989Z,0.00
2017-11-22T02:18:51.018Z,0.00
2017-11-22T02:19:51.044Z,0.00
2017-11-22T02:20:51.071Z,0.00
2017-11-22T02:21:51.098Z,0.00
2017-11-22T02:22:51.124Z,0.00
2017-11-22T02:23:51.156Z,0.00
2017-11-22T02:24:51.177Z,0.00
2017-11-22T02:25:51.207Z,0.00
2017-11-22T02:26:51.245Z,0.00
2017-11-22T02:27:51.257Z,0.00
2017-11-22T02:28:51.284Z,0.00
2017-11-22T02:29:51.314Z,0.00
2017-11-22T02:30:51.340Z,0.00
2017-11-22T02:31:51.366Z,0.00
2017-11-22T02:32:51.395Z,0.00
2017-11-22T02:33:51.418Z,0.00
2017-11-22T02:34:51.445Z,0.00
2017-11-22T02:35:51.473Z,0.00
2017-11-22T02:36:51.500Z,0.00
2017-11-22T02:37:51.527Z,0.00
2017-11-22T02:38:51.553Z,0.00
2017-11-22T02:39:51.579Z,0.00
2017-11-22T02:40:51.608Z,0.00
2017-11-22T02:41:51.639Z,0.00
2017-11-22T02:42:51.663Z,0.00
2017-11-22T02:43:51.686Z,0.00
2017-11-22T02:44:51.714Z,0.00
2017-11-22T02:45:51.740Z,0.00
2017-11-22T02:46:51.768Z,0.00
2017-11-22T02:47:51.792Z,0.00
2017-11-22T02:48:51.825Z,0.00
2017-11-22T02:49:51.847Z,0.00
2017-11-22T02:50:51.874Z,0.00
2017-11-22T02:51:51.901Z,0.00
2017-11-22T02:52:51.926Z,0.00
2017-11-22T02:53:51.954Z,0.00
2017-11-22T02:54:51.981Z,0.00
2017-11-22T02:55:52.008Z,0.00
2017-11-22T02:56:52.033Z,0.00
2017-11-22T02:57:52.060Z,0.00
2017-11-22T02:58:52.088Z,0.00
2017-11-22T02:59:52.114Z,0.00
2017-11-22T03:00:52.139Z,0.00
2017-11-22T03:01:52.167Z,0.00
2017-11-22T03:02:52.193Z,0.00
2017-11-22T03:03:52.220Z,0.00
2017-11-22T03:04:52.246Z,0.00
2017-11-22T03:05:52.275Z,0.00
2017-11-22T03:06:52.299Z,0.00
2017-11-22T03:07:52.326Z,0.00
2017-11-22T03:08:52.352Z,0.00
2017-11-22T03:09:52.379Z,0.00
2017-11-22T03:10:52.408Z,0.00
2017-11-22T03:11:52.433Z,0.00
2017-11-22T03:12:52.459Z,0.00
2017-11-22T03:13:52.487Z,0.00
2017-11-22T03:14:52.512Z,0.00
2017-11-22T03:15:52.540Z,0.00
2017-11-22T03:16:52.565Z,0.00
2017-11-22T03:17:52.593Z,0.00
2017-11-22T03:18:52.620Z,0.00
2017-11-22T03:19:52.646Z,0.00
2017-11-22T03:20:52.673Z,0.00
2017-11-22T03:21:52.700Z,0.00
2017-11-22T03:22:52.727Z,0.00
2017-11-22T03:23:52.752Z,0.00
2017-11-22T03:24:52.780Z,0.00
2017-11-22T03:25:52.807Z,0.00
2017-11-22T03:26:52.834Z,0.00
2017-11-22T03:27:52.866Z,0.00
2017-11-22T03:28:52.886Z,0.00
2017-11-22T03:29:52.913Z,0.00
2017-11-22T03:30:52.942Z,0.00
2017-11-22T03:31:52.966Z,0.00
2017-11-22T03:32:52.992Z,0.00
2017-11-22T03:33:53.020Z,0.00
2017-11-22T03:34:53.046Z,0.00
2017-11-22T03:35:53.075Z,0.00
2017-11-22T03:36:53.098Z,0.00
2017-11-22T03:37:53.125Z,0.00
2017-11-22T03:38:53.156Z,0.00
2017-11-22T03:39:53.177Z,0.00
2017-11-22T03:40:53.206Z,0.00
2017-11-22T03:41:53.233Z,0.00
2017-11-22T03:42:53.259Z,0.00
2017-11-22T03:43:53.285Z,0.00
2017-11-22T03:44:53.311Z,0.00
2017-11-22T03:45:53.338Z,0.00
2017-11-22T03:46:53.364Z,0.00
2017-11-22T03:47:53.392Z,0.00
2017-11-22T03:48:53.418Z,0.00
2017-11-22T03:49:53.445Z,0.00
2017-11-22T03:50:53.472Z,0.00
2017-11-22T03:51:53.497Z,0.00
2017-11-22T03:52:53.525Z,0.00
2017-11-22T03:53:53.552Z,0.00
2017-11-22T03:54:53.584Z,0.00
2017-11-22T03:55:53.605Z,0.00
2017-11-22T03:56:53.631Z,0.00
2017-11-22T03:57:53.658Z,0.00
2017-11-22T03:58:53.685Z,0.00
2017-11-22T03:59:53.711Z,0.00
2017-11-22T04:00:53.738Z,0.00
2017-11-22T04:01:53.766Z,0.00
2017-11-22T04:02:53.792Z,0.00
2017-11-22T04:03:53.822Z,0.00
2017-11-22T04:04:53.847Z,0.00
2017-11-22T04:05:53.873Z,0.00
2017-11-22T04:06:53.900Z,0.00
2017-11-22T04:07:53.923Z,0.00
2017-11-22T04:08:53.951Z,0.00
2017-11-22T04:09:53.977Z,0.00
2017-11-22T04:10:54.004Z,0.00
2017-11-22T04:11:54.031Z,0.00
2017-11-22T04:12:54.056Z,0.00
2017-11-22T04:13:54.089Z,0.00
2017-11-22T04:14:54.111Z,0.00
2017-11-22T04:15:54.137Z,0.00
2017-11-22T04:16:54.164Z,0.00
2017-11-22T04:17:54.190Z,0.00
2017-11-22T04:18:54.218Z,0.00
2017-11-22T04:19:54.243Z,0.00
2017-11-22T04:20:54.269Z,0.00
2017-11-22T04:21:54.297Z,0.00
2017-11-22T04:22:54.322Z,0.00
2017-11-22T04:23:54.349Z,0.00
2017-11-22T04:24:54.376Z,0.00
2017-11-22T04:25:54.403Z,0.00
2017-11-22T04:26:54.429Z,0.00
2017-11-22T04:27:54.454Z,0.00
2017-11-22T04:28:54.481Z,0.00
2017-11-22T04:29:54.509Z,0.00
2017-11-22T04:30:54.536Z,0.00
2017-11-22T04:31:54.562Z,0.00
2017-11-22T04:32:54.588Z,0.00
2017-11-22T04:33:54.616Z,0.00
2017-11-22T04:34:54.642Z,0.00
2017-11-22T04:35:54.668Z,0.00
2017-11-22T04:36:54.699Z,0.00
2017-11-22T04:37:54.723Z,0.00
2017-11-22T04:38:54.750Z,0.00
2017-11-22T04:39:54.775Z,0.00
2017-11-22T04:40:54.804Z,0.00
2017-11-22T04:41:54.829Z,0.00
2017-11-22T04:42:54.856Z,0.00
2017-11-22T04:43:54.881Z,0.00
2017-11-22T04:44:54.907Z,0.00
2017-11-22T04:45:54.935Z,0.00
2017-11-22T04:46:54.961Z,0.00
2017-11-22T04:47:54.987Z,0.00
2017-11-22T04:48:55.013Z,0.00
2017-11-22T04:49:55.040Z,0.00
2017-11-22T04:50:55.068Z,0.00
2017-11-22T04:51:55.093Z,0.00
2017-11-22T04:52:55.120Z,0.00
2017-11-22T04:53:55.147Z,0.00
2017-11-22T04:54:55.173Z,0.00
2017-11-22T04:55:55.199Z,0.00
2017-11-22T04:56:55.226Z,0.00
2017-11-22T04:57:55.252Z,0.00
2017-11-22T04:58:55.280Z,0.00
2017-11-22T04:59:55.309Z,0.00
2017-11-22T05:00:55.332Z,0.00
2017-11-22T05:01:55.357Z,0.00
2017-11-22T05:02:55.386Z,0.00
2017-11-22T05:03:55.412Z,0.00
2017-11-22T05:04:55.438Z,0.00
2017-11-22T05:05:55.465Z,0.00
2017-11-22T05:06:55.492Z,0.00
2017-11-22T05:07:55.517Z,0.00
2017-11-22T05:08:55.544Z,0.00
2017-11-22T05:09:55.573Z,0.00
2017-11-22T05:10:55.598Z,0.00
2017-11-22T05:11:55.624Z,0.00
2017-11-22T05:12:55.650Z,0.00
2017-11-22T05:13:55.678Z,0.00
2017-11-22T05:14:55.704Z,0.00
2017-11-22T05:15:55.729Z,0.00
2017-11-22T05:16:55.756Z,0.00
2017-11-22T05:17:55.783Z,0.00
2017-11-22T05:18:55.809Z,0.00
2017-11-22T05:19:55.840Z,0.00
2017-11-22T05:20:55.861Z,0.00
2017-11-22T05:21:55.890Z,0.00
2017-11-22T05:22:55.916Z,0.00
2017-11-22T05:23:55.942Z,0.00
2017-11-22T05:24:55.968Z,0.00
2017-11-22T05:25:55.996Z,0.00
2017-11-22T05:26:56.021Z,0.00
2017-11-22T05:27:56.047Z,0.00
2017-11-22T05:28:56.074Z,0.00
2017-11-22T05:29:56.102Z,0.00
2017-11-22T05:30:56.127Z,0.00
2017-11-22T05:31:56.153Z,0.00
2017-11-22T05:32:56.180Z,0.00
2017-11-22T05:33:56.206Z,0.00
2017-11-22T05:34:56.234Z,0.00
2017-11-22T05:35:56.259Z,0.00
2017-11-22T05:36:56.287Z,0.00
2017-11-22T05:37:56.313Z,0.00
2017-11-22T05:38:56.340Z,0.00
2017-11-22T05:39:56.369Z,0.00
2017-11-22T05:40:56.394Z,0.00
2017-11-22T05:41:56.419Z,0.00
2017-11-22T05:42:56.446Z,0.00
2017-11-22T05:43:56.471Z,0.00
2017-11-22T05:44:56.497Z,0.00
2017-11-22T05:45:56.529Z,0.00
2017-11-22T05:46:56.551Z,0.00
2017-11-22T05:47:56.577Z,0.00
2017-11-22T05:48:56.603Z,0.00
2017-11-22T05:49:56.629Z,0.00
2017-11-22T05:50:56.656Z,0.00
2017-11-22T05:51:56.681Z,0.00
2017-11-22T05:52:56.708Z,0.00
2017-11-22T05:53:56.735Z,0.00
2017-11-22T05:54:56.761Z,0.00
2017-11-22T05:55:56.787Z,0.00
2017-11-22T05:56:56.814Z,0.00
2017-11-22T05:57:56.840Z,0.00
2017-11-22T05:58:56.866Z,0.00
2017-11-22T05:59:56.892Z,0.00
2017-11-22T06:00:56.918Z,0.00
2017-11-22T06:01:56.949Z,0.00
2017-11-22T06:02:56.972Z,0.00
2017-11-22T06:03:56.998Z,0.00
2017-11-22T06:04:57.024Z,0.00
2017-11-22T06:05:57.051Z,0.00
2017-11-22T06:06:57.080Z,0.00
2017-11-22T06:07:57.103Z,0.00
2017-11-22T06:08:57.133Z,0.00
2017-11-22T06:09:57.155Z,0.00
2017-11-22T06:10:57.189Z,0.00
2017-11-22T06:11:57.207Z,0.00
2017-11-22T06:12:57.235Z,0.00
2017-11-22T06:13:57.263Z,0.00
2017-11-22T06:14:57.285Z,4.00
2017-11-22T06:15:57.313Z,4.00
2017-11-22T06:16:57.339Z,0.00
2017-11-22T06:17:57.365Z,4.00
2017-11-22T06:18:57.393Z,4.00
2017-11-22T06:19:57.417Z,4.00
2017-11-22T06:20:57.444Z,8.00
2017-11-22T06:21:57.470Z,8.00
2017-11-22T06:22:57.496Z,12.00
2017-11-22T06:23:57.522Z,12.00
2017-11-22T06:24:57.552Z,16.00
2017-11-22T06:25:57.575Z,16.00
2017-11-22T06:26:57.602Z,20.00
2017-11-22T06:27:57.626Z,24.00
2017-11-22T06:28:57.653Z,28.00
2017-11-22T06:29:57.679Z,32.00
2017-11-22T06:30:57.706Z,40.00
2017-11-22T06:31:57.731Z,44.00
2017-11-22T06:32:57.759Z,48.00
2017-11-22T06:33:57.783Z,56.00
2017-11-22T06:34:57.811Z,68.00
2017-11-22T06:35:57.834Z,76.00
2017-11-22T06:36:57.862Z,88.00
2017-11-22T06:37:57.889Z,96.00
2017-11-22T06:38:57.915Z,108.00
2017-11-22T06:39:57.940Z,120.00
2017-11-22T06:40:57.967Z,136.00
2017-11-22T06:41:57.995Z,148.00
2017-11-22T06:42:58.019Z,164.00
2017-11-22T06:43:58.045Z,176.00
2017-11-22T06:44:58.071Z,196.00
2017-11-22T06:45:58.098Z,216.00
2017-11-22T06:46:58.123Z,236.00
2017-11-22T06:47:58.149Z,256.00
2017-11-22T06:48:58.178Z,280.00
2017-11-22T06:49:58.201Z,304.00
2017-11-22T06:50:58.228Z,340.00
2017-11-22T06:51:58.253Z,372.00
2017-11-22T06:52:58.281Z,416.00
2017-11-22T06:53:58.307Z,456.00
2017-11-22T06:54:58.333Z,500.00
2017-11-22T06:55:58.359Z,544.00
2017-11-22T06:56:58.386Z,580.00
2017-11-22T06:57:58.414Z,624.00
2017-11-22T06:58:58.439Z,668.00
2017-11-22T06:59:58.468Z,724.00
2017-11-22T07:00:58.490Z,776.00
2017-11-22T07:01:58.526Z,832.00
2017-11-22T07:02:58.543Z,892.00
2017-11-22T07:03:58.587Z,952.00
2017-11-22T07:04:58.595Z,1012.00
2017-11-22T07:05:58.622Z,1064.00
2017-11-22T07:06:58.652Z,1120.00
2017-11-22T07:07:58.675Z,1172.00
2017-11-22T07:08:58.699Z,1220.00
2017-11-22T07:09:58.727Z,1264.00
2017-11-22T07:10:58.754Z,1292.00
2017-11-22T07:11:58.779Z,1324.00
2017-11-22T07:12:58.806Z,1356.00
2017-11-22T07:13:58.836Z,1392.00
2017-11-22T07:14:58.860Z,1432.00
2017-11-22T07:15:58.884Z,1468.00
2017-11-22T07:16:58.912Z,1508.00
2017-11-22T07:17:58.946Z,1536.00
2017-11-22T07:18:58.965Z,1568.00
2017-11-22T07:19:58.990Z,1608.00
2017-11-22T07:20:59.017Z,1648.00
2017-11-22T07:21:59.053Z,1684.00
2017-11-22T07:22:59.071Z,1732.00
2017-11-22T07:23:59.097Z,1780.00
2017-11-22T07:24:59.124Z,1828.00
2017-11-22T07:25:59.151Z,1888.00
2017-11-22T07:26:59.185Z,1948.00
2017-11-22T07:27:59.205Z,2004.00
2017-11-22T07:28:59.242Z,2080.00
2017-11-22T07:29:59.257Z,2168.00
2017-11-22T07:30:59.290Z,2268.00
2017-11-22T07:31:59.309Z,2580.00
2017-11-22T07:32:59.338Z,2500.00
2017-11-22T07:33:59.364Z,2544.00
2017-11-22T07:34:59.391Z,2824.00
2017-11-22T07:35:59.418Z,3708.00
2017-11-22T07:36:59.443Z,4396.00
2017-11-22T07:37:59.472Z,5560.00
2017-11-22T07:38:59.499Z,6884.00
2017-11-22T07:39:59.525Z,7256.00
2017-11-22T07:40:59.551Z,7108.00
2017-11-22T07:41:59.578Z,6316.00
2017-11-22T07:42:59.606Z,6628.00
2017-11-22T07:43:59.633Z,5772.00
2017-11-22T07:44:59.666Z,5508.00
2017-11-22T07:45:59.689Z,5264.00
2017-11-22T07:46:59.716Z,4368.00
2017-11-22T07:47:59.743Z,4084.00
2017-11-22T07:48:59.770Z,3640.00
2017-11-22T07:49:59.800Z,3780.00
2017-11-22T07:50:59.827Z,5104.00
2017-11-22T07:51:59.855Z,7120.00
2017-11-22T07:52:59.882Z,8728.00
2017-11-22T07:53:59.910Z,8164.00
2017-11-22T07:54:59.939Z,7368.00
2017-11-22T07:55:59.966Z,7108.00
2017-11-22T07:56:59.994Z,8648.00
2017-11-22T07:58:00.023Z,10076.00
2017-11-22T07:59:00.051Z,12044.00
2017-11-22T08:00:00.080Z,13504.00
2017-11-22T08:01:00.108Z,12832.00
2017-11-22T08:02:00.138Z,13728.00
2017-11-22T08:03:00.166Z,14016.00
2017-11-22T08:04:00.194Z,16288.00
2017-11-22T08:05:00.228Z,16384.00
2017-11-22T08:06:00.258Z,17120.00
2017-11-22T08:07:00.283Z,18976.00
2017-11-22T08:08:00.310Z,18176.00
2017-11-22T08:09:00.342Z,18144.00
2017-11-22T08:10:00.372Z,18848.00
2017-11-22T08:11:00.408Z,18560.00
2017-11-22T08:12:00.431Z,17792.00
2017-11-22T08:13:00.463Z,17184.00
2017-11-22T08:14:00.500Z,15328.00
2017-11-22T08:15:00.526Z,13504.00
2017-11-22T08:16:00.560Z,17440.00
2017-11-22T08:17:00.587Z,18016.00
2017-11-22T08:18:00.617Z,19808.00
2017-11-22T08:19:00.651Z,12988.00
2017-11-22T08:20:00.681Z,12700.00
2017-11-22T08:21:00.714Z,12944.00
2017-11-22T08:22:00.749Z,7932.00
2017-11-22T08:23:00.778Z,8440.00
2017-11-22T08:24:00.810Z,7980.00
2017-11-22T08:25:00.842Z,11844.00
2017-11-22T08:26:00.876Z,11720.00
2017-11-22T08:27:00.915Z,10880.00
2017-11-22T08:28:00.936Z,11220.00
2017-11-22T08:29:00.971Z,20736.00
2017-11-22T08:30:01.103Z,21376.00
2017-11-22T08:31:01.035Z,21504.00
2017-11-22T08:32:01.072Z,20736.00
2017-11-22T08:33:01.100Z,20320.00
2017-11-22T08:34:01.131Z,20480.00
2017-11-22T08:35:01.169Z,20640.00
2017-11-22T08:36:01.198Z,22304.00
2017-11-22T08:37:01.232Z,23264.00
2017-11-22T08:38:01.266Z,22560.00
2017-11-22T08:39:01.300Z,22080.00
2017-11-22T08:40:01.331Z,20032.00
2017-11-22T08:41:01.367Z,24448.00
2017-11-22T08:42:01.401Z,24928.00
2017-11-22T08:43:01.434Z,24032.00
2017-11-22T08:44:01.600Z,24128.00
2017-11-22T08:45:01.502Z,24512.00
2017-11-22T08:46:01.539Z,26560.00
2017-11-22T08:47:01.572Z,26752.00
2017-11-22T08:48:01.607Z,27200.00
2017-11-22T08:49:01.647Z,25824.00
2017-11-22T08:50:01.678Z,30016.00
2017-11-22T08:51:01.715Z,30208.00
2017-11-22T08:52:01.751Z,29536.00
2017-11-22T08:53:01.786Z,30048.00
2017-11-22T08:54:01.823Z,32352.00
2017-11-22T08:55:01.866Z,31168.00
2017-11-22T08:56:01.918Z,33984.00
2017-11-22T08:57:01.934Z,31296.00
2017-11-22T08:58:01.970Z,33344.00
2017-11-22T08:59:02.008Z,33024.00
2017-11-22T09:00:02.046Z,32928.00
2017-11-22T09:01:02.082Z,34816.00
2017-11-22T09:02:02.122Z,33664.00
2017-11-22T09:03:02.158Z,35872.00
2017-11-22T09:04:02.197Z,36448.00
2017-11-22T09:05:02.235Z,32000.00
2017-11-22T09:06:02.273Z,36704.00
2017-11-22T09:07:02.312Z,37024.00
2017-11-22T09:08:02.351Z,35360.00
2017-11-22T09:09:02.391Z,37504.00
2017-11-22T09:10:02.429Z,38176.00
2017-11-22T09:11:02.469Z,38432.00
2017-11-22T09:12:02.508Z,40000.00
2017-11-22T09:13:02.547Z,41696.00
2017-11-22T09:14:02.597Z,44576.00
2017-11-22T09:15:02.627Z,44128.00
2017-11-22T09:16:02.667Z,41632.00
2017-11-22T09:17:02.707Z,38176.00
2017-11-22T09:18:02.748Z,40704.00
2017-11-22T09:19:02.788Z,40768.00
2017-11-22T09:20:02.830Z,42080.00
2017-11-22T09:21:02.870Z,41824.00
2017-11-22T09:22:02.911Z,35968.00
2017-11-22T09:23:02.953Z,37056.00
2017-11-22T09:24:02.993Z,33728.00
2017-11-22T09:25:03.035Z,30528.00
2017-11-22T09:26:03.076Z,28224.00
2017-11-22T09:27:03.120Z,29856.00
2017-11-22T09:28:03.160Z,31136.00
2017-11-22T09:29:03.205Z,30080.00
2017-11-22T09:30:03.243Z,26752.00
2017-11-22T09:31:03.287Z,26528.00
2017-11-22T09:32:03.327Z,25536.00
2017-11-22T09:33:03.369Z,27552.00
2017-11-22T09:34:03.412Z,22784.00
2017-11-22T09:35:03.487Z,26400.00
2017-11-22T09:36:03.508Z,24800.00
2017-11-22T09:37:03.543Z,28160.00
2017-11-22T09:38:03.578Z,27744.00
2017-11-22T09:39:03.637Z,31072.00
2017-11-22T09:40:03.688Z,41280.00
2017-11-22T09:41:03.721Z,41952.00
2017-11-22T09:42:03.771Z,38944.00
2017-11-22T09:43:03.809Z,33376.00
2017-11-22T09:44:03.828Z,34592.00
2017-11-22T09:45:03.871Z,39904.00
2017-11-22T09:46:03.917Z,42848.00
2017-11-22T09:47:03.954Z,44768.00
2017-11-22T09:48:03.997Z,49280.00
2017-11-22T09:49:04.038Z,52256.00
2017-11-22T09:50:04.081Z,51840.00
2017-11-22T09:51:04.122Z,50528.00
2017-11-22T09:52:04.165Z,49920.00
2017-11-22T09:53:04.208Z,49248.00
2017-11-22T09:54:04.250Z,47296.00
2017-11-22T09:55:04.294Z,49248.00
2017-11-22T09:56:04.338Z,42688.00
2017-11-22T09:57:04.380Z,50016.00
2017-11-22T09:58:04.423Z,54912.00
2017-11-22T09:59:04.467Z,57664.00
2017-11-22T10:00:04.510Z,58688.00
2017-11-22T10:01:04.557Z,60672.00
2017-11-22T10:02:04.598Z,61280.00
2017-11-22T10:03:04.642Z,60512.00
2017-11-22T10:04:04.687Z,60768.00
2017-11-22T10:05:04.731Z,54528.00
2017-11-22T10:06:04.777Z,54432.00
2017-11-22T10:07:04.821Z,53184.00
2017-11-22T10:08:04.867Z,56224.00
2017-11-22T10:09:04.912Z,58720.00
2017-11-22T10:10:04.958Z,56992.00
2017-11-22T10:11:05.002Z,56128.00
2017-11-22T10:12:05.050Z,58080.00
2017-11-22T10:13:05.097Z,58976.00
2017-11-22T10:14:05.141Z,59744.00
2017-11-22T10:15:05.187Z,59584.00
2017-11-22T10:16:05.239Z,59264.00
2017-11-22T10:17:05.295Z,54752.00
2017-11-22T10:18:05.329Z,53248.00
2017-11-22T10:19:05.377Z,49376.00
2017-11-22T10:20:05.422Z,50944.00
2017-11-22T10:21:05.471Z,51872.00
2017-11-22T10:22:05.538Z,50336.00
2017-11-22T10:23:05.566Z,54272.00
2017-11-22T10:24:05.612Z,59072.00
2017-11-22T10:25:05.660Z,65504.00
2017-11-22T10:26:05.708Z,67040.00
2017-11-22T10:27:05.755Z,66720.00
2017-11-22T10:28:05.803Z,66688.00
2017-11-22T10:29:05.851Z,68864.00
2017-11-22T10:30:05.899Z,69088.00
2017-11-22T10:31:05.946Z,68512.00
2017-11-22T10:32:05.996Z,67104.00
2017-11-22T10:33:06.046Z,69088.00
2017-11-22T10:34:06.094Z,68960.00
2017-11-22T10:35:06.154Z,69088.00
2017-11-22T10:36:06.189Z,69824.00
2017-11-22T10:37:06.240Z,69920.00
2017-11-22T10:38:06.287Z,70432.00
2017-11-22T10:39:06.337Z,70784.00
2017-11-22T10:40:06.391Z,69728.00
2017-11-22T10:41:06.437Z,71776.00
2017-11-22T10:42:06.487Z,72864.00
2017-11-22T10:43:06.537Z,71968.00
2017-11-22T10:44:06.587Z,72192.00
2017-11-22T10:45:06.641Z,71360.00
2017-11-22T10:46:06.687Z,66976.00
2017-11-22T10:47:06.740Z,65728.00
2017-11-22T10:48:06.787Z,65728.00
2017-11-22T10:49:06.837Z,63808.00
2017-11-22T10:50:06.889Z,65408.00
2017-11-22T10:51:06.939Z,64768.00
2017-11-22T10:52:06.988Z,60096.00
2017-11-22T10:53:07.039Z,58496.00
2017-11-22T10:54:07.092Z,60256.00
2017-11-22T10:55:07.141Z,67872.00
2017-11-22T10:56:07.199Z,67936.00
2017-11-22T10:57:07.241Z,67040.00
2017-11-22T10:58:07.291Z,67680.00
2017-11-22T10:59:07.344Z,67872.00
2017-11-22T11:00:07.392Z,64480.00
2017-11-22T11:01:07.443Z,66880.00
2017-11-22T11:02:07.495Z,65216.00
2017-11-22T11:03:07.544Z,65568.00
2017-11-22T11:04:07.595Z,66144.00
2017-11-22T11:05:07.645Z,61856.00
2017-11-22T11:06:07.698Z,62944.00
2017-11-22T11:07:07.747Z,60288.00
2017-11-22T11:08:07.798Z,63616.00
2017-11-22T11:09:07.849Z,66848.00
2017-11-22T11:10:07.910Z,67776.00
2017-11-22T11:11:07.950Z,69248.00
2017-11-22T11:12:08.002Z,67520.00
2017-11-22T11:13:08.051Z,67328.00
2017-11-22T11:14:08.103Z,72288.00
2017-11-22T11:15:08.153Z,72896.00
2017-11-22T11:16:08.204Z,73344.00
2017-11-22T11:17:08.254Z,72736.00
2017-11-22T11:18:08.305Z,71584.00
2017-11-22T11:19:08.358Z,71968.00
2017-11-22T11:20:08.408Z,70528.00
2017-11-22T11:21:08.460Z,69760.00
2017-11-22T11:22:08.510Z,71616.00
2017-11-22T11:23:08.570Z,69408.00
2017-11-22T11:24:08.613Z,67104.00
2017-11-22T11:25:08.664Z,67552.00
2017-11-22T11:26:08.716Z,67808.00
2017-11-22T11:27:08.768Z,68864.00
2017-11-22T11:28:08.824Z,70976.00
2017-11-22T11:29:08.873Z,69056.00
2017-11-22T11:30:08.922Z,67072.00
2017-11-22T11:31:08.975Z,68512.00
2017-11-22T11:32:09.025Z,70400.00
2017-11-22T11:33:09.076Z,71712.00
2017-11-22T11:34:09.128Z,72416.00
2017-11-22T11:35:09.181Z,74816.00
2017-11-22T11:36:09.232Z,75264.00
2017-11-22T11:37:09.284Z,72352.00
2017-11-22T11:38:09.344Z,71712.00
2017-11-22T11:39:09.388Z,71680.00
2017-11-22T11:40:09.440Z,73312.00
2017-11-22T11:41:09.492Z,74272.00
2017-11-22T11:42:09.545Z,73504.00
2017-11-22T11:43:09.597Z,74656.00
2017-11-22T11:44:09.649Z,76192.00
2017-11-22T11:45:09.699Z,75616.00
2017-11-22T11:46:09.754Z,76320.00
2017-11-22T11:47:09.807Z,76608.00
2017-11-22T11:48:09.857Z,77952.00
2017-11-22T11:49:09.909Z,78272.00
2017-11-22T11:50:09.964Z,77664.00
2017-11-22T11:51:10.016Z,77152.00
2017-11-22T11:52:10.069Z,76288.00
2017-11-22T11:53:10.119Z,73344.00
2017-11-22T11:54:10.181Z,72064.00
2017-11-22T11:55:10.225Z,73248.00
2017-11-22T11:56:10.276Z,75168.00
2017-11-22T11:57:10.330Z,76576.00
2017-11-22T11:58:10.383Z,78144.00
2017-11-22T11:59:10.434Z,77440.00
2017-11-22T12:00:10.587Z,77600.00
2017-11-22T12:01:10.538Z,79264.00
2017-11-22T12:02:10.592Z,78432.00
2017-11-22T12:03:10.645Z,76320.00
2017-11-22T12:04:10.696Z,76384.00
2017-11-22T12:05:10.749Z,78912.00
2017-11-22T12:06:10.803Z,79296.00
2017-11-22T12:07:10.855Z,77792.00
2017-11-22T12:08:10.907Z,77152.00
2017-11-22T12:09:10.959Z,77056.00
2017-11-22T12:10:11.013Z,76704.00
2017-11-22T12:11:11.116Z,76448.00
2017-11-22T12:12:11.118Z,76288.00
2017-11-22T12:13:11.170Z,75968.00
2017-11-22T12:14:11.223Z,75360.00
2017-11-22T12:15:11.275Z,74496.00
2017-11-22T12:16:11.328Z,74528.00
2017-11-22T12:17:11.380Z,74688.00
2017-11-22T12:18:11.432Z,75200.00
2017-11-22T12:19:11.484Z,75840.00
2017-11-22T12:20:11.536Z,75360.00
2017-11-22T12:21:11.590Z,75360.00
2017-11-22T12:22:11.642Z,74720.00
2017-11-22T12:23:11.694Z,73792.00
2017-11-22T12:24:11.747Z,75168.00
2017-11-22T12:25:11.799Z,73760.00
2017-11-22T12:26:11.852Z,69152.00
2017-11-22T12:27:11.905Z,67968.00
2017-11-22T12:28:11.962Z,70048.00
2017-11-22T12:29:12.009Z,72032.00
2017-11-22T12:30:12.061Z,72576.00
2017-11-22T12:31:12.113Z,71296.00
2017-11-22T12:32:12.164Z,70912.00
2017-11-22T12:33:12.224Z,69440.00
2017-11-22T12:34:12.269Z,69600.00